Time;durP1;ratioP1;P1;durP2;ratioP2;P2;SDS_P1;SDS_P2;PMS_P1;PMS_P2;Temp;Humidity;BMP_temperature;BMP_pressure;BME280_temperature;BME280_humidity;BME280_pressure;Samples;Min_cycle;Max_cycle;Signal;HPM_P1;HPM_P2
2023/07/17 00:00:56;;;;;;;14.13;3.15;;;14.80;99.90;;;;;;5058740;28;20143;-80
2023/07/17 00:03:23;;;;;;;17.20;3.33;;;14.70;99.90;;;;;;5076022;28;20059;-81
2023/07/17 00:05:50;;;;;;;11.15;3.45;;;14.70;99.90;;;;;;5075170;28;20040;-79
2023/07/17 00:08:17;;;;;;;11.82;2.97;;;14.60;99.90;;;;;;5075995;28;20040;-80
2023/07/17 00:10:43;;;;;;;13.65;2.90;;;14.70;99.90;;;;;;5076453;28;20060;-80
2023/07/17 00:13:10;;;;;;;9.32;3.10;;;14.60;99.90;;;;;;5074606;28;20045;-81
2023/07/17 00:15:37;;;;;;;12.85;3.03;;;14.60;99.90;;;;;;5075115;28;20068;-79
2023/07/17 00:18:04;;;;;;;8.43;3.28;;;14.60;99.90;;;;;;5057471;28;20045;-80
2023/07/17 00:20:30;;;;;;;17.02;3.55;;;14.60;99.90;;;;;;5075876;28;20044;-79
2023/07/17 00:22:57;;;;;;;12.85;3.08;;;14.50;99.90;;;;;;5075481;28;20336;-80
2023/07/17 00:25:25;;;;;;;10.77;2.83;;;14.50;99.90;;;;;;5074927;28;20059;-80
2023/07/17 00:27:52;;;;;;;13.35;2.80;;;14.50;99.90;;;;;;5075892;28;20348;-78
2023/07/17 00:30:18;;;;;;;9.45;2.95;;;14.50;99.90;;;;;;5075728;28;20123;-80
2023/07/17 00:32:45;;;;;;;9.05;2.78;;;14.50;99.90;;;;;;5056818;28;20052;-79
2023/07/17 00:35:12;;;;;;;10.23;2.47;;;14.40;99.90;;;;;;5058314;28;20090;-79
2023/07/17 00:37:39;;;;;;;16.13;2.67;;;14.40;99.90;;;;;;5058044;28;20074;-80
2023/07/17 00:40:08;;;;;;;12.00;2.95;;;14.30;99.90;;;;;;5074123;28;20049;-79
2023/07/17 00:42:34;;;;;;;13.25;2.53;;;14.30;99.90;;;;;;5057598;28;20041;-80
2023/07/17 00:45:01;;;;;;;7.20;2.55;;;14.30;99.90;;;;;;5056986;28;20068;-80
2023/07/17 00:47:28;;;;;;;17.13;3.38;;;14.30;99.90;;;;;;5057597;28;20048;-79
2023/07/17 00:49:55;;;;;;;10.50;2.67;;;14.30;99.90;;;;;;5075592;28;20052;-80
2023/07/17 00:52:21;;;;;;;11.73;2.53;;;14.30;99.90;;;;;;5074066;28;20042;-80
2023/07/17 00:54:48;;;;;;;11.18;2.42;;;14.30;99.90;;;;;;5057703;28;20060;-80
2023/07/17 00:57:17;;;;;;;16.50;2.92;;;14.30;99.90;;;;;;5057640;28;20451;-80
2023/07/17 00:59:44;;;;;;;12.57;3.10;;;14.20;99.90;;;;;;5074466;28;20052;-80
2023/07/17 01:02:10;;;;;;;14.38;2.53;;;14.20;99.90;;;;;;5040848;28;20060;-81
2023/07/17 01:04:37;;;;;;;10.98;2.60;;;14.20;99.90;;;;;;5074939;28;20075;-80
2023/07/17 01:07:05;;;;;;;8.80;2.00;;;14.20;99.90;;;;;;5075375;28;20044;-81
2023/07/17 01:09:32;;;;;;;10.88;2.60;;;14.20;99.90;;;;;;5057272;28;20514;-80
2023/07/17 01:11:59;;;;;;;11.05;2.30;;;14.10;99.90;;;;;;5055874;28;20051;-81
2023/07/17 01:14:25;;;;;;;9.93;2.28;;;14.10;99.90;;;;;;5075379;28;20438;-81
2023/07/17 01:16:53;;;;;;;12.40;2.50;;;14.10;99.90;;;;;;5040820;28;20044;-82
2023/07/17 01:19:20;;;;;;;10.77;2.17;;;14.10;99.90;;;;;;5056319;28;20076;-80
2023/07/17 01:21:47;;;;;;;8.50;2.17;;;14.10;99.90;;;;;;5074577;28;20044;-80
2023/07/17 01:24:14;;;;;;;8.18;2.70;;;14.10;99.90;;;;;;5075269;28;20036;-81
2023/07/17 01:26:40;;;;;;;6.45;1.90;;;14.00;99.90;;;;;;5056110;28;20478;-80
2023/07/17 01:29:07;;;;;;;8.48;2.50;;;14.00;99.90;;;;;;5074690;28;20048;-80
2023/07/17 01:31:34;;;;;;;6.30;1.85;;;14.00;99.90;;;;;;5056164;28;20483;-80
2023/07/17 01:34:01;;;;;;;6.85;2.45;;;14.00;99.90;;;;;;5075062;28;20355;-81
2023/07/17 01:36:28;;;;;;;12.07;2.47;;;13.90;99.90;;;;;;5057121;28;20045;-79
2023/07/17 01:38:55;;;;;;;16.95;3.03;;;14.00;99.90;;;;;;5056130;28;20048;-81
2023/07/17 01:41:22;;;;;;;11.65;2.58;;;13.90;99.90;;;;;;5074174;28;20056;-80
2023/07/17 01:43:49;;;;;;;8.10;2.55;;;13.90;99.90;;;;;;5057004;28;20044;-81
2023/07/17 01:46:16;;;;;;;11.13;2.33;;;13.90;99.90;;;;;;5056519;28;20072;-80
2023/07/17 01:48:43;;;;;;;16.17;2.47;;;13.90;99.90;;;;;;5040696;28;20533;-79
2023/07/17 01:51:10;;;;;;;12.25;2.00;;;13.90;99.90;;;;;;5074587;28;20541;-81
2023/07/17 01:53:37;;;;;;;9.20;2.60;;;13.90;99.90;;;;;;5056036;28;20051;-80
2023/07/17 01:56:05;;;;;;;5.93;1.75;;;13.90;99.90;;;;;;5074458;28;20052;-81
2023/07/17 01:58:31;;;;;;;10.38;1.92;;;13.80;99.90;;;;;;5055903;28;20036;-79
2023/07/17 02:00:58;;;;;;;10.63;2.60;;;13.90;99.90;;;;;;5074470;28;20352;-78
2023/07/17 02:03:25;;;;;;;7.40;2.17;;;13.80;99.90;;;;;;5056789;28;20420;-80
2023/07/17 02:05:53;;;;;;;7.68;2.20;;;13.80;99.90;;;;;;5073319;28;20047;-79
2023/07/17 02:08:20;;;;;;;9.73;2.33;;;13.80;99.90;;;;;;5074348;28;20455;-80
2023/07/17 02:10:47;;;;;;;12.77;2.88;;;13.80;99.90;;;;;;5056880;28;20048;-80
2023/07/17 02:13:14;;;;;;;15.75;3.40;;;13.80;99.90;;;;;;5073339;28;20061;-81
2023/07/17 02:15:42;;;;;;;12.60;2.80;;;13.90;99.90;;;;;;5056669;28;20101;-79
2023/07/17 02:18:08;;;;;;;8.82;2.15;;;13.90;99.90;;;;;;5055903;28;20131;-79
2023/07/17 02:20:35;;;;;;;10.18;3.22;;;13.90;99.90;;;;;;5074382;28;20352;-79
2023/07/17 02:23:02;;;;;;;10.00;2.28;;;13.90;99.90;;;;;;5039779;28;20040;-80
2023/07/17 02:25:29;;;;;;;11.65;2.30;;;13.80;99.90;;;;;;5055550;28;20048;-80
2023/07/17 02:27:55;;;;;;;7.70;2.38;;;13.80;99.90;;;;;;5074551;28;20195;-79
2023/07/17 02:30:23;;;;;;;12.32;2.92;;;13.80;99.90;;;;;;5056706;28;20456;-79
2023/07/17 02:32:50;;;;;;;13.75;2.03;;;13.80;99.90;;;;;;5055824;28;20037;-79
2023/07/17 02:35:17;;;;;;;13.13;2.38;;;13.80;99.90;;;;;;5074313;28;20075;-79
2023/07/17 02:37:46;;;;;;;12.38;2.78;;;13.80;99.90;;;;;;5075335;28;20035;-80
2023/07/17 02:40:13;;;;;;;8.55;2.45;;;13.80;99.90;;;;;;5059031;28;20410;-78
2023/07/17 02:42:40;;;;;;;11.90;2.53;;;13.80;99.90;;;;;;5059919;28;20433;-79
2023/07/17 02:45:07;;;;;;;10.00;2.75;;;13.80;99.90;;;;;;5042658;28;20533;-79
2023/07/17 02:47:34;;;;;;;12.27;2.08;;;13.80;99.90;;;;;;5043699;28;20041;-81
2023/07/17 02:50:00;;;;;;;9.70;2.22;;;13.80;99.90;;;;;;5060101;28;20051;-80
2023/07/17 02:52:28;;;;;;;10.27;2.40;;;13.80;99.90;;;;;;5059090;28;20049;-81
2023/07/17 02:54:55;;;;;;;14.95;2.30;;;13.80;99.90;;;;;;5060425;28;20041;-80
2023/07/17 02:57:22;;;;;;;17.58;3.20;;;13.70;99.90;;;;;;5077622;28;20079;-79
2023/07/17 02:59:49;;;;;;;10.85;2.80;;;13.70;99.90;;;;;;5059375;28;20051;-81
2023/07/17 03:02:16;;;;;;;11.35;2.17;;;13.70;99.90;;;;;;5059364;28;20136;-80
2023/07/17 03:04:44;;;;;;;6.65;2.03;;;13.70;99.90;;;;;;5059011;28;20048;-80
2023/07/17 03:07:11;;;;;;;17.15;3.05;;;13.70;99.90;;;;;;5059549;28;20098;-79
2023/07/17 03:09:38;;;;;;;11.90;2.72;;;13.70;99.90;;;;;;5077169;28;20071;-79
2023/07/17 03:12:04;;;;;;;11.55;2.55;;;13.70;99.90;;;;;;5058444;28;20140;-81
2023/07/17 03:14:31;;;;;;;9.07;2.15;;;13.70;99.90;;;;;;5059826;28;20040;-79
2023/07/17 03:17:00;;;;;;;10.73;2.40;;;13.70;99.90;;;;;;5059598;28;20033;-81
2023/07/17 03:19:27;;;;;;;13.50;2.25;;;13.70;99.90;;;;;;5076101;28;20124;-81
2023/07/17 03:21:54;;;;;;;19.33;2.55;;;13.70;99.90;;;;;;5059122;28;20406;-80
2023/07/17 03:24:21;;;;;;;9.27;2.33;;;13.70;99.90;;;;;;5059558;28;20427;-80
2023/07/17 03:29:34;;;;;;;10.40;2.50;;;13.70;99.90;;;;;;5076885;28;20124;-80
2023/07/17 03:32:01;;;;;;;9.35;2.58;;;13.70;99.90;;;;;;5058264;28;20394;-80
2023/07/17 03:34:28;;;;;;;14.73;3.40;;;13.70;99.90;;;;;;5059185;28;20044;-80
2023/07/17 03:36:56;;;;;;;8.07;2.63;;;13.70;99.90;;;;;;5059150;28;20044;-80
2023/07/17 03:39:23;;;;;;;13.23;2.55;;;13.70;99.90;;;;;;5041690;28;20105;-80
2023/07/17 03:41:50;;;;;;;20.67;3.33;;;13.70;99.90;;;;;;5058821;28;20456;-79
2023/07/17 03:44:16;;;;;;;10.75;2.63;;;13.70;99.90;;;;;;5042411;28;20036;-80
2023/07/17 03:46:44;;;;;;;10.13;2.50;;;13.70;99.90;;;;;;5041930;28;20048;-81
2023/07/17 03:49:11;;;;;;;9.52;2.53;;;13.70;99.90;;;;;;5057795;28;20135;-81
2023/07/17 03:51:38;;;;;;;14.85;2.22;;;13.70;99.90;;;;;;5057669;28;20048;-80
2023/07/17 03:54:07;;;;;;;11.10;2.95;;;13.70;99.90;;;;;;5059131;28;20482;-81
2023/07/17 03:56:36;;;;;;;11.40;2.80;;;13.80;99.90;;;;;;5058798;28;20064;-80
2023/07/17 03:59:04;;;;;;;9.73;3.22;;;13.80;99.90;;;;;;5057663;28;20036;-80
2023/07/17 04:01:31;;;;;;;7.57;2.47;;;13.80;99.90;;;;;;5058173;28;20395;-80
2023/07/17 04:03:59;;;;;;;9.20;2.78;;;13.80;99.90;;;;;;5058471;28;20501;-81
2023/07/17 04:06:26;;;;;;;22.50;3.03;;;13.80;99.90;;;;;;5057805;28;20044;-80
2023/07/17 04:08:53;;;;;;;10.55;3.28;;;13.80;99.90;;;;;;5076319;28;20120;-79
2023/07/17 04:11:20;;;;;;;18.42;3.00;;;13.80;99.90;;;;;;5041050;28;20045;-81
2023/07/17 04:13:50;;;;;;;8.98;2.60;;;13.80;99.90;;;;;;5058653;28;20399;-81
2023/07/17 04:16:20;;;;;;;7.60;2.60;;;13.80;99.90;;;;;;5058372;28;20131;-80
2023/07/17 04:18:47;;;;;;;12.20;3.47;;;13.80;99.90;;;;;;5057506;28;20041;-79
2023/07/17 04:21:14;;;;;;;15.63;2.92;;;13.80;99.90;;;;;;5075662;28;20482;-78
2023/07/17 04:23:41;;;;;;;10.18;2.88;;;13.80;99.90;;;;;;5057953;28;20048;-79
2023/07/17 04:26:15;;;;;;;11.93;2.63;;;13.80;99.90;;;;;;5057564;28;20418;-80
2023/07/17 04:28:42;;;;;;;10.35;2.53;;;13.80;99.90;;;;;;5075719;28;20119;-81
2023/07/17 04:31:08;;;;;;;10.98;2.80;;;13.80;99.90;;;;;;5057526;28;20064;-79
2023/07/17 04:33:35;;;;;;;11.20;2.58;;;13.80;99.90;;;;;;5057080;28;20075;-78
2023/07/17 04:36:02;;;;;;;10.00;2.55;;;13.80;99.90;;;;;;5058101;28;20049;-80
2023/07/17 04:38:29;;;;;;;14.30;2.85;;;13.80;99.90;;;;;;5057442;28;20068;-78
2023/07/17 04:40:56;;;;;;;13.82;3.08;;;13.90;99.90;;;;;;5054239;28;20053;-79
2023/07/17 04:43:23;;;;;;;11.68;3.05;;;13.90;99.90;;;;;;5054154;28;20048;-81
2023/07/17 04:45:50;;;;;;;9.13;2.90;;;14.00;99.90;;;;;;5053678;28;20387;-78
2023/07/17 04:48:21;;;;;;;15.23;2.83;;;14.00;99.90;;;;;;5054546;28;20053;-79
2023/07/17 04:50:48;;;;;;;11.30;3.95;;;14.10;99.90;;;;;;5054912;28;20045;-80
2023/07/17 04:53:15;;;;;;;14.90;2.70;;;14.10;99.90;;;;;;5053541;28;20040;-79
2023/07/17 04:55:42;;;;;;;8.68;3.03;;;14.20;99.90;;;;;;5054392;28;20468;-80
2023/07/17 04:58:09;;;;;;;9.80;2.97;;;14.30;99.90;;;;;;5053363;28;20476;-78
2023/07/17 05:00:37;;;;;;;11.23;3.13;;;14.40;99.90;;;;;;5053645;28;20146;-79
2023/07/17 05:03:06;;;;;;;14.75;3.33;;;14.40;99.90;;;;;;5054072;28;20462;-80
2023/07/17 05:05:33;;;;;;;13.35;3.10;;;14.40;99.90;;;;;;5054104;28;20056;-79
2023/07/17 05:08:01;;;;;;;13.40;2.92;;;14.50;99.90;;;;;;5054174;28;20041;-79
2023/07/17 05:10:29;;;;;;;13.27;3.08;;;14.60;99.90;;;;;;5037866;28;20120;-80
2023/07/17 05:12:55;;;;;;;11.98;3.10;;;14.60;99.90;;;;;;5053948;28;20045;-83
2023/07/17 05:15:22;;;;;;;8.15;2.60;;;14.60;99.90;;;;;;5055170;28;20103;-80
2023/07/17 05:17:50;;;;;;;14.20;3.75;;;14.60;99.90;;;;;;5037869;28;20079;-79
2023/07/17 05:20:16;;;;;;;9.23;3.75;;;14.60;99.90;;;;;;5053696;28;20041;-80
2023/07/17 05:22:43;;;;;;;10.77;3.30;;;14.60;99.90;;;;;;5053911;28;20133;-81
2023/07/17 05:25:10;;;;;;;14.60;3.33;;;14.80;99.90;;;;;;5053247;28;20232;-81
2023/07/17 05:27:37;;;;;;;13.15;3.45;;;14.90;99.90;;;;;;5054690;28;20045;-82
2023/07/17 05:30:03;;;;;;;8.40;3.13;;;14.90;99.90;;;;;;5054842;28;20048;-78
2023/07/17 05:32:31;;;;;;;13.52;3.58;;;14.90;99.90;;;;;;5036267;28;20051;-80
2023/07/17 05:34:57;;;;;;;17.83;3.40;;;14.90;99.90;;;;;;5053679;28;20075;-80
2023/07/17 05:37:24;;;;;;;14.65;2.85;;;15.00;99.90;;;;;;5037237;28;20443;-80
2023/07/17 05:39:53;;;;;;;14.32;3.65;;;15.10;99.90;;;;;;5055745;28;20052;-78
2023/07/17 05:42:20;;;;;;;13.55;3.22;;;15.10;99.90;;;;;;5056742;28;20083;-81
2023/07/17 05:44:47;;;;;;;8.50;2.75;;;15.20;99.90;;;;;;5056302;28;20037;-81
2023/07/17 05:47:14;;;;;;;10.40;3.20;;;15.30;99.90;;;;;;5057106;28;20406;-81
2023/07/17 05:49:41;;;;;;;12.02;3.25;;;15.40;99.90;;;;;;5057043;28;20049;-80
2023/07/17 05:52:09;;;;;;;9.60;2.90;;;15.50;99.90;;;;;;5055968;28;20062;-81
2023/07/17 05:54:36;;;;;;;13.10;3.30;;;15.40;99.90;;;;;;5057153;28;20506;-79
2023/07/17 05:57:04;;;;;;;11.85;3.20;;;15.40;99.90;;;;;;5074793;28;20459;-79
2023/07/17 05:59:31;;;;;;;7.63;2.72;;;15.30;99.90;;;;;;5064212;28;20044;-79
2023/07/17 06:01:58;;;;;;;10.90;3.63;;;15.40;99.90;;;;;;5076865;28;20151;-81
2023/07/17 06:04:25;;;;;;;12.63;3.00;;;15.40;99.90;;;;;;5077098;28;20056;-81
2023/07/17 06:06:53;;;;;;;11.50;3.70;;;15.40;99.90;;;;;;5076005;28;20127;-80
2023/07/17 06:09:19;;;;;;;12.82;3.50;;;15.40;99.90;;;;;;5077230;28;20394;-80
2023/07/17 06:11:46;;;;;;;12.27;3.05;;;15.40;99.90;;;;;;5093425;28;20510;-81
2023/07/17 06:14:13;;;;;;;10.35;3.30;;;15.40;99.90;;;;;;5073416;28;20446;-81
2023/07/17 06:16:42;;;;;;;11.70;3.38;;;15.40;99.90;;;;;;5061042;28;20431;-81
2023/07/17 06:19:08;;;;;;;11.70;2.80;;;15.40;99.90;;;;;;5077179;28;20044;-80
2023/07/17 06:21:35;;;;;;;8.05;3.08;;;15.50;99.90;;;;;;5077940;28;20079;-80
2023/07/17 06:24:02;;;;;;;10.00;3.22;;;15.70;99.90;;;;;;5060811;28;20052;-78
2023/07/17 06:26:29;;;;;;;10.70;3.17;;;15.90;99.90;;;;;;5059883;28;20040;-81
2023/07/17 06:28:55;;;;;;;10.45;3.20;;;16.20;99.90;;;;;;5078084;28;20134;-80
2023/07/17 06:31:22;;;;;;;16.42;3.17;;;16.20;99.90;;;;;;5059155;28;20052;-79
2023/07/17 06:33:49;;;;;;;11.90;3.08;;;16.10;99.90;;;;;;5077873;28;20040;-80
2023/07/17 06:36:17;;;;;;;15.02;2.97;;;16.00;99.90;;;;;;5077926;28;20078;-80
2023/07/17 06:38:43;;;;;;;15.23;2.83;;;16.10;99.90;;;;;;5076952;28;20131;-81
2023/07/17 06:41:10;;;;;;;9.55;2.97;;;16.20;99.90;;;;;;5077214;28;20055;-80
2023/07/17 06:43:37;;;;;;;11.65;3.00;;;16.20;99.90;;;;;;5077582;28;20048;-82
2023/07/17 06:46:04;;;;;;;12.25;3.08;;;16.30;99.90;;;;;;5058972;28;20549;-78
2023/07/17 06:48:31;;;;;;;12.93;3.33;;;16.40;99.90;;;;;;5077798;28;20082;-81
2023/07/17 06:50:58;;;;;;;12.13;3.03;;;16.60;99.90;;;;;;5077315;28;20036;-81
2023/07/17 06:53:25;;;;;;;14.15;3.30;;;16.70;99.90;;;;;;5076522;28;20075;-81
2023/07/17 06:55:53;;;;;;;9.20;3.15;;;16.80;99.90;;;;;;5077527;28;20036;-81
2023/07/17 06:58:20;;;;;;;11.38;2.90;;;17.00;99.90;;;;;;5076699;28;20528;-81
2023/07/17 07:00:47;;;;;;;8.90;2.65;;;17.20;99.90;;;;;;5077233;28;20498;-81
2023/07/17 07:03:15;;;;;;;10.88;2.92;;;17.30;99.90;;;;;;5059708;28;20098;-77
2023/07/17 07:05:42;;;;;;;11.45;2.83;;;17.50;99.90;;;;;;5058854;28;20044;-81
2023/07/17 07:08:08;;;;;;;8.55;2.65;;;17.40;99.90;;;;;;5059700;28;20433;-79
2023/07/17 07:10:35;;;;;;;15.27;2.80;;;17.30;99.90;;;;;;5077245;28;20123;-79
2023/07/17 07:13:02;;;;;;;11.13;2.58;;;17.40;99.90;;;;;;5076346;28;20086;-80
2023/07/17 07:15:28;;;;;;;9.23;2.88;;;17.60;99.90;;;;;;5077059;28;20467;-78
2023/07/17 07:17:55;;;;;;;12.63;2.60;;;17.70;99.90;;;;;;5077336;28;20394;-80
2023/07/17 07:20:22;;;;;;;14.90;2.63;;;18.00;99.90;;;;;;5058272;28;20044;-82
2023/07/17 07:22:49;;;;;;;11.15;3.13;;;18.10;99.90;;;;;;5076788;28;20076;-81
2023/07/17 07:28:01;;;;;;;8.55;2.40;;;18.30;99.90;;;;;;5077065;28;20076;-82
2023/07/17 07:30:28;;;;;;;8.32;2.47;;;18.20;99.90;;;;;;5076287;28;20486;-80
2023/07/17 07:32:55;;;;;;;9.32;2.53;;;18.00;99.90;;;;;;5075959;28;20044;-81
2023/07/17 07:35:23;;;;;;;10.27;2.35;;;17.90;99.90;;;;;;5076672;28;20070;-80
2023/07/17 07:37:49;;;;;;;9.57;2.33;;;17.90;99.90;;;;;;5076949;28;20106;-80
2023/07/17 07:40:16;;;;;;;9.50;2.42;;;17.90;99.90;;;;;;5075482;28;20119;-81
2023/07/17 07:42:43;;;;;;;10.00;2.20;;;18.00;99.90;;;;;;5057132;28;20528;-81
2023/07/17 07:45:10;;;;;;;14.43;2.53;;;18.00;99.90;;;;;;5057649;28;20530;-85
2023/07/17 07:47:37;;;;;;;11.73;2.28;;;18.00;99.90;;;;;;5058989;28;20048;-87
2023/07/17 07:50:03;;;;;;;9.98;2.58;;;18.00;99.90;;;;;;5048080;28;20462;-84
2023/07/17 07:52:30;;;;;;;10.05;2.28;;;17.90;99.90;;;;;;5072537;28;20369;-83
2023/07/17 07:54:57;;;;;;;6.85;1.90;;;17.90;99.90;;;;;;5042032;28;20438;-82
2023/07/17 07:57:26;;;;;;;12.70;2.33;;;18.00;99.90;;;;;;5035623;28;20079;-83
2023/07/17 07:59:53;;;;;;;12.18;2.47;;;18.20;99.90;;;;;;5074708;28;20043;-84
2023/07/17 08:02:20;;;;;;;8.00;2.03;;;18.40;99.90;;;;;;5069407;28;20032;-84
2023/07/17 08:04:47;;;;;;;9.40;2.25;;;18.30;99.90;;;;;;5075022;28;20040;-83
2023/07/17 08:07:14;;;;;;;6.95;1.90;;;18.20;99.90;;;;;;5058146;28;20421;-82
2023/07/17 08:09:41;;;;;;;8.50;2.20;;;18.40;99.90;;;;;;5058222;28;20455;-81
2023/07/17 08:12:08;;;;;;;7.60;2.25;;;18.30;99.90;;;;;;5067476;28;20056;-80
2023/07/17 08:14:34;;;;;;;8.00;2.13;;;18.10;99.90;;;;;;5074070;28;20101;-82
2023/07/17 08:17:03;;;;;;;10.32;2.30;;;18.30;99.90;;;;;;5057847;28;20037;-81
2023/07/17 08:19:30;;;;;;;8.05;2.20;;;18.70;99.90;;;;;;5074860;28;20060;-81
2023/07/17 08:21:57;;;;;;;8.77;2.10;;;19.00;99.90;;;;;;5057237;28;20040;-81
2023/07/17 08:24:23;;;;;;;7.20;1.90;;;19.10;99.90;;;;;;5075097;28;20455;-83
2023/07/17 08:26:50;;;;;;;6.93;2.00;;;19.40;99.90;;;;;;5073893;28;20052;-82
2023/07/17 08:29:17;;;;;;;12.20;1.95;;;19.40;99.90;;;;;;5074962;28;20371;-84
2023/07/17 08:31:44;;;;;;;6.80;1.92;;;19.40;99.90;;;;;;5074502;28;20098;-82
2023/07/17 08:34:11;;;;;;;5.85;2.00;;;19.20;99.90;;;;;;5075413;28;20045;-82
2023/07/17 08:39:23;;;;;;;8.60;1.80;;;19.50;99.90;;;;;;5057163;28;20450;-85
2023/07/17 08:41:50;;;;;;;7.10;2.10;;;19.50;99.90;;;;;;5057441;28;20471;-81
2023/07/17 08:44:17;;;;;;;15.05;2.55;;;19.70;99.90;;;;;;5057298;28;20376;-82
2023/07/17 08:46:46;;;;;;;18.55;2.13;;;20.00;99.90;;;;;;5056809;28;20036;-82
2023/07/17 08:49:13;;;;;;;8.40;1.60;;;20.30;99.90;;;;;;5057475;28;20060;-81
2023/07/17 08:51:40;;;;;;;6.78;1.40;;;20.50;99.90;;;;;;5073379;28;20095;-83
2023/07/17 08:54:07;;;;;;;11.25;1.98;;;20.60;99.90;;;;;;5057662;28;20098;-82
2023/07/17 08:56:38;;;;;;;6.88;1.77;;;20.70;99.90;;;;;;5074855;28;20094;-82
2023/07/17 08:59:05;;;;;;;3.92;1.40;;;20.70;99.90;;;;;;5056249;28;20075;-82
2023/07/17 09:01:31;;;;;;;5.13;1.63;;;20.80;99.90;;;;;;5074471;28;20055;-81
2023/07/17 09:03:59;;;;;;;5.07;1.40;;;20.90;99.90;;;;;;5074485;28;20076;-80
2023/07/17 09:06:27;;;;;;;7.32;1.58;;;21.00;99.90;;;;;;5074747;28;20379;-83
2023/07/17 09:08:56;;;;;;;5.47;1.30;;;21.50;99.90;;;;;;5041226;28;20344;-79
2023/07/17 09:11:23;;;;;;;6.70;1.80;;;21.70;99.90;;;;;;5073457;28;20135;-79
2023/07/17 09:13:50;;;;;;;7.22;1.65;;;21.80;99.90;;;;;;5074987;28;20045;-79
2023/07/17 09:16:18;;;;;;;5.25;1.65;;;22.00;99.90;;;;;;5074670;28;20044;-79
2023/07/17 09:18:45;;;;;;;8.50;1.50;;;22.20;99.90;;;;;;5073918;28;20040;-79
2023/07/17 09:21:12;;;;;;;10.35;1.65;;;22.20;99.90;;;;;;5074346;28;20119;-79
2023/07/17 09:23:39;;;;;;;6.25;1.50;;;22.60;99.90;;;;;;5074740;28;20079;-82
2023/07/17 09:26:07;;;;;;;4.15;1.55;;;22.50;99.90;;;;;;5075356;28;20123;-84
2023/07/17 09:28:33;;;;;;;5.15;1.23;;;22.20;99.90;;;;;;5057471;28;20074;-86
2023/07/17 09:31:03;;;;;;;3.75;1.27;;;21.60;99.90;;;;;;5056815;28;20036;-84
2023/07/17 09:33:30;;;;;;;7.78;1.65;;;21.00;99.90;;;;;;5073850;28;20033;-80
2023/07/17 09:38:43;;;;;;;6.35;1.63;;;20.20;99.90;;;;;;5072550;28;20495;-81
2023/07/17 09:41:10;;;;;;;6.80;1.42;;;20.30;99.90;;;;;;5056639;28;20456;-82
2023/07/17 09:43:37;;;;;;;5.72;1.65;;;20.70;99.90;;;;;;5074471;28;20400;-82
2023/07/17 09:48:33;;;;;;;5.88;1.75;;;21.50;99.90;;;;;;5068144;28;21046;-82
2023/07/17 09:51:00;;;;;;;6.22;1.80;;;21.70;99.90;;;;;;5078387;28;20067;-79
2023/07/17 09:53:27;;;;;;;5.90;1.50;;;21.30;99.90;;;;;;5077497;28;20036;-82
2023/07/17 09:55:54;;;;;;;6.88;1.90;;;21.20;99.90;;;;;;5078431;28;20044;-83
2023/07/17 09:58:21;;;;;;;5.38;1.88;;;21.20;99.90;;;;;;5077893;28;20468;-84
2023/07/17 10:00:48;;;;;;;5.13;1.50;;;21.20;99.90;;;;;;5060809;28;20048;-84
2023/07/17 10:03:20;;;;;;;7.75;2.22;;;21.30;99.90;;;;;;5078441;28;20123;-80
2023/07/17 10:05:48;;;;;;;6.75;1.77;;;21.30;99.90;;;;;;5077637;28;20115;-80
2023/07/17 10:08:15;;;;;;;6.28;1.52;;;21.30;99.90;;;;;;5078426;28;20072;-81
2023/07/17 10:10:42;;;;;;;6.70;1.60;;;21.30;99.90;;;;;;5060679;28;20408;-82
2023/07/17 10:13:08;;;;;;;6.32;1.50;;;21.80;99.90;;;;;;5059693;28;20118;-82
2023/07/17 10:15:35;;;;;;;5.70;1.70;;;22.20;99.90;;;;;;5078317;28;20063;-81
2023/07/17 10:18:02;;;;;;;6.72;1.63;;;21.70;99.90;;;;;;5059924;28;20410;-83
2023/07/17 10:20:29;;;;;;;6.55;1.30;;;20.70;99.90;;;;;;5060253;28;20049;-81
2023/07/17 10:22:56;;;;;;;6.68;1.45;;;19.40;99.90;;;;;;5060553;28;20098;-81
2023/07/17 10:25:23;;;;;;;2.85;1.10;;;18.40;99.90;;;;;;5077051;28;20076;-78
2023/07/17 10:27:49;;;;;;;4.70;1.23;;;17.70;99.90;;;;;;5077470;28;20064;-82
2023/07/17 10:30:16;;;;;;;6.47;1.38;;;17.30;99.90;;;;;;5058887;28;20079;-80
2023/07/17 10:32:46;;;;;;;9.48;1.70;;;17.30;99.90;;;;;;5049489;28;20123;-82
2023/07/17 10:35:14;;;;;;;8.48;1.50;;;17.50;99.90;;;;;;5059886;28;20040;-81
2023/07/17 10:37:41;;;;;;;4.05;1.38;;;17.80;99.90;;;;;;5077395;28;20497;-85
2023/07/17 10:40:07;;;;;;;5.03;1.25;;;18.40;99.90;;;;;;5076162;28;20075;-86
2023/07/17 10:42:34;;;;;;;7.13;1.50;;;18.60;99.90;;;;;;5077543;28;20058;-85
2023/07/17 10:45:01;;;;;;;8.13;1.48;;;18.60;99.90;;;;;;5059339;28;20044;-87
2023/07/17 10:47:28;;;;;;;4.35;1.33;;;18.30;99.90;;;;;;5077567;28;20048;-90
2023/07/17 10:49:54;;;;;;;7.38;1.63;;;18.30;99.90;;;;;;5059779;28;20433;-89
2023/07/17 10:52:21;;;;;;;6.50;1.70;;;18.60;99.90;;;;;;5058812;28;20036;-87
2023/07/17 10:54:48;;;;;;;6.20;2.00;;;19.20;99.90;;;;;;5060049;28;20037;-82
2023/07/17 10:57:16;;;;;;;8.43;2.00;;;19.60;99.90;;;;;;5077058;28;20044;-81
2023/07/17 10:59:42;;;;;;;3.80;1.33;;;20.00;99.90;;;;;;5058560;28;20040;-82
2023/07/17 11:02:09;;;;;;;5.82;1.33;;;20.50;99.90;;;;;;5077031;28;20068;-80
2023/07/17 11:04:36;;;;;;;5.95;1.70;;;21.50;99.90;;;;;;5081823;28;20046;-79
2023/07/17 11:09:49;;;;;;;22.10;2.90;;;23.80;99.90;;;;;;5097590;28;20044;-80
2023/07/17 11:12:16;;;;;;;53.88;4.50;;;24.50;99.90;;;;;;5096397;28;20089;-81
2023/07/17 11:14:43;;;;;;;66.20;5.68;;;25.80;99.90;;;;;;5097397;28;20073;-79
2023/07/17 11:17:12;;;;;;;78.75;6.40;;;26.30;99.90;;;;;;5097096;28;20044;-82
2023/07/17 11:19:38;;;;;;;7.53;1.77;;;25.70;99.90;;;;;;5062082;28;20413;-84
2023/07/17 11:22:06;;;;;;;8.32;1.85;;;24.90;99.90;;;;;;5062374;28;20044;-85
2023/07/17 11:24:32;;;;;;;7.32;1.60;;;24.40;99.90;;;;;;5096875;28;20051;-84
2023/07/17 11:30:04;;;;;;;10.82;1.70;;;25.10;99.90;;;;;;5096531;28;20032;-84
2023/07/17 11:32:31;;;;;;;9.77;1.50;;;24.90;99.90;;;;;;5095908;28;20797;-80
2023/07/17 11:35:17;;;;;;;3.53;1.27;;;24.50;99.90;;;;;;5088907;28;20051;-87
2023/07/17 11:38:06;;;;;;;4.88;1.30;;;24.30;99.90;;;;;;5076442;28;20456;-84
2023/07/17 11:40:42;;;;;;;4.47;1.40;;;23.80;99.90;;;;;;5043643;28;20063;-83
2023/07/17 11:43:09;;;;;;;4.32;1.35;;;23.80;99.90;;;;;;5058656;28;20048;-86
2023/07/17 11:45:38;;;;;;;6.22;1.60;;;23.80;99.90;;;;;;5058139;28;20040;-86
2023/07/17 11:48:05;;;;;;;5.30;1.63;;;24.20;99.90;;;;;;5033966;28;20048;-90
2023/07/17 11:50:32;;;;;;;4.43;1.30;;;24.20;99.90;;;;;;5058214;28;20079;-88
2023/07/17 11:52:59;;;;;;;3.67;1.15;;;24.40;99.90;;;;;;5075058;28;20439;-88
2023/07/17 11:58:11;;;;;;;4.68;1.30;;;24.70;99.90;;;;;;5074441;28;20391;-88
2023/07/17 12:00:38;;;;;;;6.10;1.50;;;24.50;99.90;;;;;;5057758;28;20036;-85
2023/07/17 12:03:05;;;;;;;5.00;1.30;;;24.60;99.90;;;;;;5058773;28;20048;-88
2023/07/17 12:08:19;;;;;;;5.57;1.70;;;25.00;99.90;;;;;;5075755;28;20048;-88
2023/07/17 12:10:46;;;;;;;4.53;1.50;;;25.00;99.90;;;;;;5074770;28;20040;-83
2023/07/17 12:13:12;;;;;;;2.67;1.00;;;25.20;99.90;;;;;;5074738;28;20115;-84
2023/07/17 12:15:41;;;;;;;4.38;1.40;;;25.20;99.90;;;;;;5041691;28;20109;-82
2023/07/17 12:18:07;;;;;;;4.40;1.38;;;25.50;99.90;;;;;;5074848;28;20048;-87
2023/07/17 12:20:34;;;;;;;3.55;1.17;;;25.80;99.90;;;;;;5058134;28;20394;-82
2023/07/17 12:23:02;;;;;;;3.47;1.30;;;26.30;99.90;;;;;;5075607;28;20513;-81
2023/07/17 12:25:30;;;;;;;6.75;1.40;;;26.20;99.90;;;;;;5057315;28;20484;-82
2023/07/17 12:27:58;;;;;;;5.05;1.30;;;26.00;99.90;;;;;;5075447;28;20040;-83
2023/07/17 12:30:25;;;;;;;5.97;1.30;;;26.00;99.90;;;;;;5074952;28;20048;-83
2023/07/17 12:32:52;;;;;;;3.05;1.17;;;26.20;99.90;;;;;;5074290;28;20033;-81
2023/07/17 12:35:21;;;;;;;6.35;1.60;;;26.50;99.90;;;;;;5075531;28;20036;-84
2023/07/17 12:37:48;;;;;;;5.38;1.35;;;25.80;99.90;;;;;;5058303;28;20040;-84
2023/07/17 12:40:14;;;;;;;4.10;1.40;;;25.30;99.90;;;;;;5056829;28;20509;-82
2023/07/17 12:42:41;;;;;;;5.38;1.17;;;25.20;99.90;;;;;;5058109;28;20049;-82
2023/07/17 12:45:08;;;;;;;5.63;1.45;;;25.40;99.90;;;;;;5074353;28;20109;-83
2023/07/17 12:47:35;;;;;;;5.45;1.48;;;24.90;99.90;;;;;;5075086;28;20098;-82
2023/07/17 12:50:03;;;;;;;3.78;1.30;;;25.10;99.90;;;;;;5074827;28;20040;-80
2023/07/17 12:52:30;;;;;;;5.65;1.40;;;25.10;99.90;;;;;;5073772;28;20036;-82
2023/07/17 12:54:56;;;;;;;5.43;1.40;;;25.20;99.90;;;;;;5056978;28;20470;-83
2023/07/17 12:57:25;;;;;;;5.50;1.30;;;24.50;99.90;;;;;;5057881;28;20426;-79
2023/07/17 12:59:54;;;;;;;3.92;1.10;;;24.80;99.90;;;;;;5073351;28;20494;-78
2023/07/17 13:02:23;;;;;;;3.63;1.10;;;24.20;99.90;;;;;;5057874;28;20079;-80
2023/07/17 13:04:50;;;;;;;3.15;1.00;;;23.70;99.90;;;;;;5074058;28;20048;-85
2023/07/17 13:07:17;;;;;;;5.88;1.52;;;23.60;99.90;;;;;;5043829;28;20094;-79